sensor_id;sensor_type;location;lat;lon;timestamp;pressure;altitude;pressure_sealevel;temperature
59339;BMP280;45117;50.960;5.500;2023-07-20T00:01:32;100510.63;;;16.15
59339;BMP280;45117;50.960;5.500;2023-07-20T00:03:59;100565.25;;;16.58
59339;BMP280;45117;50.960;5.500;2023-07-20T00:06:26;100555.63;;;16.44
59339;BMP280;45117;50.960;5.500;2023-07-20T00:08:53;100489.00;;;16.03
59339;BMP280;45117;50.960;5.500;2023-07-20T00:11:20;100500.34;;;16.10
59339;BMP280;45117;50.960;5.500;2023-07-20T00:13:46;100533.09;;;16.25
59339;BMP280;45117;50.960;5.500;2023-07-20T00:16:13;100560.44;;;16.40
59339;BMP280;45117;50.960;5.500;2023-07-20T00:18:41;100564.16;;;16.33
59339;BMP280;45117;50.960;5.500;2023-07-20T00:21:08;100549.81;;;16.23
59339;BMP280;45117;50.960;5.500;2023-07-20T00:23:34;100578.59;;;16.30
59339;BMP280;45117;50.960;5.500;2023-07-20T00:26:03;100558.91;;;16.17
59339;BMP280;45117;50.960;5.500;2023-07-20T00:28:29;100534.72;;;16.01
59339;BMP280;45117;50.960;5.500;2023-07-20T00:30:56;100560.88;;;16.16
59339;BMP280;45117;50.960;5.500;2023-07-20T00:33:22;100555.25;;;16.11
59339;BMP280;45117;50.960;5.500;2023-07-20T00:35:50;100552.88;;;16.13
59339;BMP280;45117;50.960;5.500;2023-07-20T00:38:18;100549.09;;;16.10
59339;BMP280;45117;50.960;5.500;2023-07-20T00:40:44;100560.56;;;16.14
59339;BMP280;45117;50.960;5.500;2023-07-20T00:43:11;100561.75;;;16.13
59339;BMP280;45117;50.960;5.500;2023-07-20T00:45:38;100565.34;;;16.10
59339;BMP280;45117;50.960;5.500;2023-07-20T00:48:06;100552.47;;;16.02
59339;BMP280;45117;50.960;5.500;2023-07-20T00:50:34;100575.09;;;16.08
59339;BMP280;45117;50.960;5.500;2023-07-20T00:53:02;100559.66;;;15.96
59339;BMP280;45117;50.960;5.500;2023-07-20T00:55:31;100569.47;;;16.02
59339;BMP280;45117;50.960;5.500;2023-07-20T00:57:58;100567.69;;;15.99
59339;BMP280;45117;50.960;5.500;2023-07-20T01:00:25;100528.56;;;15.66
59339;BMP280;45117;50.960;5.500;2023-07-20T01:02:53;100562.47;;;15.92
59339;BMP280;45117;50.960;5.500;2023-07-20T01:05:20;100570.81;;;15.85
59339;BMP280;45117;50.960;5.500;2023-07-20T01:07:53;100577.22;;;15.91
59339;BMP280;45117;50.960;5.500;2023-07-20T01:10:29;100557.09;;;15.79
59339;BMP280;45117;50.960;5.500;2023-07-20T01:13:01;100531.47;;;15.58
59339;BMP280;45117;50.960;5.500;2023-07-20T01:15:28;100567.63;;;15.77
59339;BMP280;45117;50.960;5.500;2023-07-20T01:17:55;100569.16;;;15.66
59339;BMP280;45117;50.960;5.500;2023-07-20T01:20:23;100497.03;;;15.12
59339;BMP280;45117;50.960;5.500;2023-07-20T01:23:19;100564.38;;;15.70
59339;BMP280;45117;50.960;5.500;2023-07-20T01:26:04;100551.53;;;15.61
59339;BMP280;45117;50.960;5.500;2023-07-20T01:31:54;100576.25;;;15.85
59339;BMP280;45117;50.960;5.500;2023-07-20T01:34:24;100569.88;;;15.79
59339;BMP280;45117;50.960;5.500;2023-07-20T01:36:53;100570.94;;;15.81
59339;BMP280;45117;50.960;5.500;2023-07-20T01:39:21;100501.88;;;15.29
59339;BMP280;45117;50.960;5.500;2023-07-20T01:41:48;100564.25;;;15.86
59339;BMP280;45117;50.960;5.500;2023-07-20T01:44:15;100570.53;;;15.83
59339;BMP280;45117;50.960;5.500;2023-07-20T01:46:41;100522.53;;;15.49
59339;BMP280;45117;50.960;5.500;2023-07-20T01:49:09;100535.06;;;15.55
59339;BMP280;45117;50.960;5.500;2023-07-20T01:51:36;100521.88;;;15.45
59339;BMP280;45117;50.960;5.500;2023-07-20T01:54:03;100545.22;;;15.64
59339;BMP280;45117;50.960;5.500;2023-07-20T01:56:29;100552.78;;;15.69
59339;BMP280;45117;50.960;5.500;2023-07-20T01:58:56;100556.59;;;15.59
59339;BMP280;45117;50.960;5.500;2023-07-20T02:01:22;100534.97;;;15.46
59339;BMP280;45117;50.960;5.500;2023-07-20T02:03:49;100551.84;;;15.50
59339;BMP280;45117;50.960;5.500;2023-07-20T02:06:17;100557.03;;;15.57
59339;BMP280;45117;50.960;5.500;2023-07-20T02:08:44;100520.03;;;15.29
59339;BMP280;45117;50.960;5.500;2023-07-20T02:11:10;100557.25;;;15.50
59339;BMP280;45117;50.960;5.500;2023-07-20T02:13:37;100543.63;;;15.41
59339;BMP280;45117;50.960;5.500;2023-07-20T02:16:04;100544.94;;;15.49
59339;BMP280;45117;50.960;5.500;2023-07-20T02:18:31;100539.31;;;15.44
59339;BMP280;45117;50.960;5.500;2023-07-20T02:20:58;100551.94;;;15.47
59339;BMP280;45117;50.960;5.500;2023-07-20T02:23:26;100563.31;;;15.42
59339;BMP280;45117;50.960;5.500;2023-07-20T02:25:52;100521.47;;;15.08
59339;BMP280;45117;50.960;5.500;2023-07-20T02:28:19;100561.81;;;15.28
59339;BMP280;45117;50.960;5.500;2023-07-20T02:30:46;100510.31;;;14.93
59339;BMP280;45117;50.960;5.500;2023-07-20T02:33:14;100561.09;;;15.27
59339;BMP280;45117;50.960;5.500;2023-07-20T02:35:42;100543.53;;;15.07
59339;BMP280;45117;50.960;5.500;2023-07-20T02:38:08;100561.56;;;15.22
59339;BMP280;45117;50.960;5.500;2023-07-20T02:40:36;100561.50;;;15.26
59339;BMP280;45117;50.960;5.500;2023-07-20T02:43:03;100566.59;;;15.24
59339;BMP280;45117;50.960;5.500;2023-07-20T02:45:29;100559.13;;;15.15
59339;BMP280;45117;50.960;5.500;2023-07-20T02:47:56;100574.91;;;15.17
59339;BMP280;45117;50.960;5.500;2023-07-20T02:50:23;100567.31;;;15.12
59339;BMP280;45117;50.960;5.500;2023-07-20T02:52:49;100542.00;;;14.93
59339;BMP280;45117;50.960;5.500;2023-07-20T02:55:16;100519.84;;;14.72
59339;BMP280;45117;50.960;5.500;2023-07-20T02:57:46;100527.72;;;14.80
59339;BMP280;45117;50.960;5.500;2023-07-20T03:00:13;100548.38;;;14.99
59339;BMP280;45117;50.960;5.500;2023-07-20T03:02:41;100565.28;;;15.16
59339;BMP280;45117;50.960;5.500;2023-07-20T03:05:08;100581.81;;;15.18
59339;BMP280;45117;50.960;5.500;2023-07-20T03:07:35;100571.91;;;15.15
59339;BMP280;45117;50.960;5.500;2023-07-20T03:10:02;100586.28;;;15.24
59339;BMP280;45117;50.960;5.500;2023-07-20T03:12:29;100566.56;;;15.11
59339;BMP280;45117;50.960;5.500;2023-07-20T03:14:57;100586.72;;;15.23
59339;BMP280;45117;50.960;5.500;2023-07-20T03:17:24;100576.41;;;15.18
59339;BMP280;45117;50.960;5.500;2023-07-20T03:19:50;100575.22;;;15.06
59339;BMP280;45117;50.960;5.500;2023-07-20T03:22:17;100594.50;;;15.21
59339;BMP280;45117;50.960;5.500;2023-07-20T03:24:43;100594.38;;;15.24
59339;BMP280;45117;50.960;5.500;2023-07-20T03:27:10;100590.59;;;15.22
59339;BMP280;45117;50.960;5.500;2023-07-20T03:29:36;100595.78;;;15.29
59339;BMP280;45117;50.960;5.500;2023-07-20T03:32:05;100592.13;;;15.23
59339;BMP280;45117;50.960;5.500;2023-07-20T03:34:32;100598.41;;;15.32
59339;BMP280;45117;50.960;5.500;2023-07-20T03:36:59;100567.31;;;15.12
59339;BMP280;45117;50.960;5.500;2023-07-20T03:39:26;100590.84;;;15.27
59339;BMP280;45117;50.960;5.500;2023-07-20T03:41:52;100569.72;;;15.10
59339;BMP280;45117;50.960;5.500;2023-07-20T03:44:21;100552.06;;;15.05
59339;BMP280;45117;50.960;5.500;2023-07-20T03:46:48;100595.69;;;15.32
59339;BMP280;45117;50.960;5.500;2023-07-20T03:49:15;100602.16;;;15.35
59339;BMP280;45117;50.960;5.500;2023-07-20T03:51:43;100593.84;;;15.29
59339;BMP280;45117;50.960;5.500;2023-07-20T03:54:09;100586.72;;;15.23
59339;BMP280;45117;50.960;5.500;2023-07-20T03:56:36;100583.56;;;15.24
59339;BMP280;45117;50.960;5.500;2023-07-20T03:59:03;100605.31;;;15.46
59339;BMP280;45117;50.960;5.500;2023-07-20T04:01:29;100580.94;;;15.33
59339;BMP280;45117;50.960;5.500;2023-07-20T04:04:05;100609.88;;;15.49
59339;BMP280;45117;50.960;5.500;2023-07-20T04:06:34;100569.69;;;15.22
59339;BMP280;45117;50.960;5.500;2023-07-20T04:09:01;100599.91;;;15.46
59339;BMP280;45117;50.960;5.500;2023-07-20T04:11:28;100595.34;;;15.43
59339;BMP280;45117;50.960;5.500;2023-07-20T04:13:54;100577.81;;;15.35
59339;BMP280;45117;50.960;5.500;2023-07-20T04:16:21;100605.22;;;15.50
59339;BMP280;45117;50.960;5.500;2023-07-20T04:18:48;100604.22;;;15.56
59339;BMP280;45117;50.960;5.500;2023-07-20T04:21:14;100604.00;;;15.63
59339;BMP280;45117;50.960;5.500;2023-07-20T04:23:42;100582.69;;;15.53
59339;BMP280;45117;50.960;5.500;2023-07-20T04:26:09;100597.75;;;15.67
59339;BMP280;45117;50.960;5.500;2023-07-20T04:28:37;100599.78;;;15.75
59339;BMP280;45117;50.960;5.500;2023-07-20T04:31:11;100604.75;;;15.77
59339;BMP280;45117;50.960;5.500;2023-07-20T04:33:38;100596.63;;;15.77
59339;BMP280;45117;50.960;5.500;2023-07-20T04:36:05;100598.25;;;15.74
59339;BMP280;45117;50.960;5.500;2023-07-20T04:38:32;100604.88;;;15.73
59339;BMP280;45117;50.960;5.500;2023-07-20T04:41:00;100612.44;;;15.78
59339;BMP280;45117;50.960;5.500;2023-07-20T04:43:28;100599.66;;;15.79
59339;BMP280;45117;50.960;5.500;2023-07-20T04:45:55;100608.72;;;15.85
59339;BMP280;45117;50.960;5.500;2023-07-20T04:48:22;100602.34;;;15.79
59339;BMP280;45117;50.960;5.500;2023-07-20T04:50:48;100612.03;;;16.02
59339;BMP280;45117;50.960;5.500;2023-07-20T04:53:15;100576.47;;;15.78
59339;BMP280;45117;50.960;5.500;2023-07-20T04:55:47;100601.47;;;15.94
59339;BMP280;45117;50.960;5.500;2023-07-20T04:58:17;100609.22;;;16.05
59339;BMP280;45117;50.960;5.500;2023-07-20T05:00:44;100603.47;;;16.16
59339;BMP280;45117;50.960;5.500;2023-07-20T05:03:10;100610.03;;;16.28
59339;BMP280;45117;50.960;5.500;2023-07-20T05:05:37;100607.19;;;16.31
59339;BMP280;45117;50.960;5.500;2023-07-20T05:08:04;100615.06;;;16.38
59339;BMP280;45117;50.960;5.500;2023-07-20T05:10:30;100577.06;;;16.07
59339;BMP280;45117;50.960;5.500;2023-07-20T05:12:57;100605.06;;;16.26
59339;BMP280;45117;50.960;5.500;2023-07-20T05:15:25;100607.09;;;16.22
59339;BMP280;45117;50.960;5.500;2023-07-20T05:17:52;100629.50;;;16.35
59339;BMP280;45117;50.960;5.500;2023-07-20T05:20:19;100571.13;;;16.00
59339;BMP280;45117;50.960;5.500;2023-07-20T05:22:46;100565.25;;;16.01
59339;BMP280;45117;50.960;5.500;2023-07-20T05:25:13;100558.81;;;15.86
59339;BMP280;45117;50.960;5.500;2023-07-20T05:27:40;100625.31;;;16.21
59339;BMP280;45117;50.960;5.500;2023-07-20T05:30:07;100603.91;;;16.14
59339;BMP280;45117;50.960;5.500;2023-07-20T05:32:35;100587.78;;;15.98
59339;BMP280;45117;50.960;5.500;2023-07-20T05:35:02;100613.28;;;16.22
59339;BMP280;45117;50.960;5.500;2023-07-20T05:37:28;100637.56;;;16.48
59339;BMP280;45117;50.960;5.500;2023-07-20T05:39:57;100626.25;;;16.40
59339;BMP280;45117;50.960;5.500;2023-07-20T05:42:24;100637.41;;;16.42
59339;BMP280;45117;50.960;5.500;2023-07-20T05:44:51;100632.97;;;16.36
59339;BMP280;45117;50.960;5.500;2023-07-20T05:47:18;100639.75;;;16.53
59339;BMP280;45117;50.960;5.500;2023-07-20T05:49:46;100581.53;;;16.23
59339;BMP280;45117;50.960;5.500;2023-07-20T05:52:13;100605.16;;;16.57
59339;BMP280;45117;50.960;5.500;2023-07-20T05:54:42;100601.34;;;16.54
59339;BMP280;45117;50.960;5.500;2023-07-20T05:57:08;100639.53;;;16.69
59339;BMP280;45117;50.960;5.500;2023-07-20T05:59:35;100603.66;;;16.43
59339;BMP280;45117;50.960;5.500;2023-07-20T06:02:04;100628.00;;;16.56
59339;BMP280;45117;50.960;5.500;2023-07-20T06:04:30;100574.31;;;16.42
59339;BMP280;45117;50.960;5.500;2023-07-20T06:07:00;100569.81;;;16.48
59339;BMP280;45117;50.960;5.500;2023-07-20T06:09:27;100641.84;;;17.02
59339;BMP280;45117;50.960;5.500;2023-07-20T06:11:54;100584.97;;;16.58
59339;BMP280;45117;50.960;5.500;2023-07-20T06:14:21;100643.41;;;17.12
59339;BMP280;45117;50.960;5.500;2023-07-20T06:16:48;100622.97;;;16.89
59339;BMP280;45117;50.960;5.500;2023-07-20T06:19:15;100638.56;;;17.07
59339;BMP280;45117;50.960;5.500;2023-07-20T06:21:41;100595.69;;;16.93
59339;BMP280;45117;50.960;5.500;2023-07-20T06:24:09;100644.19;;;17.12
59339;BMP280;45117;50.960;5.500;2023-07-20T06:26:36;100584.06;;;16.83
59339;BMP280;45117;50.960;5.500;2023-07-20T06:29:04;100624.44;;;17.12
59339;BMP280;45117;50.960;5.500;2023-07-20T06:31:31;100619.34;;;16.92
59339;BMP280;45117;50.960;5.500;2023-07-20T06:34:01;100658.59;;;17.40
59339;BMP280;45117;50.960;5.500;2023-07-20T06:36:28;100624.63;;;17.85
59339;BMP280;45117;50.960;5.500;2023-07-20T06:38:55;100623.75;;;17.79
59339;BMP280;45117;50.960;5.500;2023-07-20T06:41:23;100632.94;;;18.18
59339;BMP280;45117;50.960;5.500;2023-07-20T06:43:50;100645.59;;;18.58
59339;BMP280;45117;50.960;5.500;2023-07-20T06:46:17;100632.53;;;18.89
59339;BMP280;45117;50.960;5.500;2023-07-20T06:48:44;100595.84;;;19.42
59339;BMP280;45117;50.960;5.500;2023-07-20T06:51:11;100660.63;;;19.38
59339;BMP280;45117;50.960;5.500;2023-07-20T06:53:38;100659.22;;;19.18
59339;BMP280;45117;50.960;5.500;2023-07-20T06:56:05;100649.63;;;18.90
59339;BMP280;45117;50.960;5.500;2023-07-20T06:58:33;100670.72;;;19.13
59339;BMP280;45117;50.960;5.500;2023-07-20T07:01:04;100620.94;;;18.70
59339;BMP280;45117;50.960;5.500;2023-07-20T07:03:31;100606.13;;;18.81
59339;BMP280;45117;50.960;5.500;2023-07-20T07:05:58;100654.31;;;18.89
59339;BMP280;45117;50.960;5.500;2023-07-20T07:08:28;100634.16;;;18.45
59339;BMP280;45117;50.960;5.500;2023-07-20T07:10:55;100659.59;;;19.35
59339;BMP280;45117;50.960;5.500;2023-07-20T07:13:21;100677.22;;;19.49
59339;BMP280;45117;50.960;5.500;2023-07-20T07:15:50;100655.19;;;19.38
59339;BMP280;45117;50.960;5.500;2023-07-20T07:18:16;100669.97;;;19.46
59339;BMP280;45117;50.960;5.500;2023-07-20T07:20:50;100645.03;;;19.47
59339;BMP280;45117;50.960;5.500;2023-07-20T07:23:17;100680.72;;;19.73
59339;BMP280;45117;50.960;5.500;2023-07-20T07:25:46;100685.91;;;20.10
59339;BMP280;45117;50.960;5.500;2023-07-20T07:28:13;100689.09;;;20.61
59339;BMP280;45117;50.960;5.500;2023-07-20T07:30:40;100680.25;;;20.67
59339;BMP280;45117;50.960;5.500;2023-07-20T07:33:08;100685.91;;;20.78
59339;BMP280;45117;50.960;5.500;2023-07-20T07:35:38;100665.47;;;20.88
59339;BMP280;45117;50.960;5.500;2023-07-20T07:38:11;100669.34;;;20.52
59339;BMP280;45117;50.960;5.500;2023-07-20T07:40:38;100682.88;;;20.46
59339;BMP280;45117;50.960;5.500;2023-07-20T07:43:04;100687.38;;;20.35
59339;BMP280;45117;50.960;5.500;2023-07-20T07:45:34;100688.81;;;20.59
59339;BMP280;45117;50.960;5.500;2023-07-20T07:48:01;100701.31;;;21.10
59339;BMP280;45117;50.960;5.500;2023-07-20T07:50:30;100692.13;;;21.28
59339;BMP280;45117;50.960;5.500;2023-07-20T07:53:00;100692.84;;;21.84
59339;BMP280;45117;50.960;5.500;2023-07-20T07:55:28;100695.44;;;21.93
59339;BMP280;45117;50.960;5.500;2023-07-20T07:57:57;100690.22;;;22.67
59339;BMP280;45117;50.960;5.500;2023-07-20T08:00:25;100687.50;;;21.95
59339;BMP280;45117;50.960;5.500;2023-07-20T08:02:52;100695.22;;;22.17
59339;BMP280;45117;50.960;5.500;2023-07-20T08:05:18;100660.78;;;21.84
59339;BMP280;45117;50.960;5.500;2023-07-20T08:07:46;100658.38;;;21.66
59339;BMP280;45117;50.960;5.500;2023-07-20T08:10:14;100698.13;;;22.34
59339;BMP280;45117;50.960;5.500;2023-07-20T08:12:41;100645.66;;;23.09
59339;BMP280;45117;50.960;5.500;2023-07-20T08:15:10;100664.06;;;23.03
59339;BMP280;45117;50.960;5.500;2023-07-20T08:17:40;100626.66;;;22.57
59339;BMP280;45117;50.960;5.500;2023-07-20T08:20:08;100683.16;;;22.29
59339;BMP280;45117;50.960;5.500;2023-07-20T08:22:37;100674.75;;;21.86
59339;BMP280;45117;50.960;5.500;2023-07-20T08:25:06;100676.34;;;22.45
59339;BMP280;45117;50.960;5.500;2023-07-20T08:27:33;100632.84;;;22.52
59339;BMP280;45117;50.960;5.500;2023-07-20T08:29:59;100685.59;;;23.86
59339;BMP280;45117;50.960;5.500;2023-07-20T08:32:26;100684.19;;;23.37
59339;BMP280;45117;50.960;5.500;2023-07-20T08:34:53;100694.28;;;23.68
59339;BMP280;45117;50.960;5.500;2023-07-20T08:37:20;100689.75;;;23.54
59339;BMP280;45117;50.960;5.500;2023-07-20T08:39:46;100696.41;;;23.42
59339;BMP280;45117;50.960;5.500;2023-07-20T08:42:15;100698.31;;;23.89
59339;BMP280;45117;50.960;5.500;2023-07-20T08:44:44;100688.06;;;23.19
59339;BMP280;45117;50.960;5.500;2023-07-20T08:47:12;100704.34;;;23.40
59339;BMP280;45117;50.960;5.500;2023-07-20T08:49:41;100671.00;;;23.47
59339;BMP280;45117;50.960;5.500;2023-07-20T08:52:08;100698.13;;;24.49
59339;BMP280;45117;50.960;5.500;2023-07-20T08:54:36;100695.63;;;24.84
59339;BMP280;45117;50.960;5.500;2023-07-20T08:57:05;100707.06;;;25.11
59339;BMP280;45117;50.960;5.500;2023-07-20T08:59:35;100670.63;;;24.93
59339;BMP280;45117;50.960;5.500;2023-07-20T09:02:04;100702.72;;;26.20
59339;BMP280;45117;50.960;5.500;2023-07-20T09:04:31;100696.16;;;26.58
59339;BMP280;45117;50.960;5.500;2023-07-20T09:06:58;100692.09;;;26.89
59339;BMP280;45117;50.960;5.500;2023-07-20T09:09:24;100657.97;;;26.44
59339;BMP280;45117;50.960;5.500;2023-07-20T09:11:51;100686.75;;;27.72
59339;BMP280;45117;50.960;5.500;2023-07-20T09:14:18;100699.53;;;28.20
59339;BMP280;45117;50.960;5.500;2023-07-20T09:16:50;100667.91;;;26.52
59339;BMP280;45117;50.960;5.500;2023-07-20T09:19:24;100645.38;;;25.58
59339;BMP280;45117;50.960;5.500;2023-07-20T09:21:52;100689.59;;;27.10
59339;BMP280;45117;50.960;5.500;2023-07-20T09:24:19;100700.88;;;27.49
59339;BMP280;45117;50.960;5.500;2023-07-20T09:26:47;100697.47;;;27.94
59339;BMP280;45117;50.960;5.500;2023-07-20T09:29:17;100703.50;;;28.25
59339;BMP280;45117;50.960;5.500;2023-07-20T09:31:59;100689.50;;;28.49
59339;BMP280;45117;50.960;5.500;2023-07-20T09:34:27;100698.50;;;29.49
59339;BMP280;45117;50.960;5.500;2023-07-20T09:36:55;100692.78;;;29.89
59339;BMP280;45117;50.960;5.500;2023-07-20T09:39:22;100695.41;;;27.25
59339;BMP280;45117;50.960;5.500;2023-07-20T09:41:49;100687.81;;;27.50
59339;BMP280;45117;50.960;5.500;2023-07-20T09:44:17;100675.44;;;27.57
59339;BMP280;45117;50.960;5.500;2023-07-20T09:46:45;100692.94;;;27.59
59339;BMP280;45117;50.960;5.500;2023-07-20T09:49:14;100690.69;;;28.08
59339;BMP280;45117;50.960;5.500;2023-07-20T09:51:41;100665.38;;;27.91
59339;BMP280;45117;50.960;5.500;2023-07-20T09:54:07;100687.63;;;28.12
59339;BMP280;45117;50.960;5.500;2023-07-20T09:56:34;100676.41;;;28.76
59339;BMP280;45117;50.960;5.500;2023-07-20T09:59:02;100678.03;;;28.71
59339;BMP280;45117;50.960;5.500;2023-07-20T10:01:29;100643.78;;;28.48
59339;BMP280;45117;50.960;5.500;2023-07-20T10:03:59;100646.44;;;28.67
59339;BMP280;45117;50.960;5.500;2023-07-20T10:06:32;100673.38;;;29.13
59339;BMP280;45117;50.960;5.500;2023-07-20T10:09:01;100689.47;;;29.69
59339;BMP280;45117;50.960;5.500;2023-07-20T10:11:30;100668.31;;;28.91
59339;BMP280;45117;50.960;5.500;2023-07-20T10:13:59;100666.19;;;28.97
59339;BMP280;45117;50.960;5.500;2023-07-20T10:16:29;100675.03;;;28.69
59339;BMP280;45117;50.960;5.500;2023-07-20T10:19:03;100687.59;;;29.30
59339;BMP280;45117;50.960;5.500;2023-07-20T10:21:33;100653.41;;;29.83
59339;BMP280;45117;50.960;5.500;2023-07-20T10:24:02;100657.41;;;30.31
59339;BMP280;45117;50.960;5.500;2023-07-20T10:26:29;100673.31;;;29.60
59339;BMP280;45117;50.960;5.500;2023-07-20T10:28:57;100657.25;;;28.38
59339;BMP280;45117;50.960;5.500;2023-07-20T10:31:25;100675.66;;;28.36
59339;BMP280;45117;50.960;5.500;2023-07-20T10:33:54;100671.09;;;28.78
59339;BMP280;45117;50.960;5.500;2023-07-20T10:36:24;100664.78;;;29.04
59339;BMP280;45117;50.960;5.500;2023-07-20T10:38:55;100655.59;;;28.62
59339;BMP280;45117;50.960;5.500;2023-07-20T10:41:27;100660.81;;;29.88
59339;BMP280;45117;50.960;5.500;2023-07-20T10:43:58;100653.44;;;27.70
59339;BMP280;45117;50.960;5.500;2023-07-20T10:46:42;100631.69;;;27.29
59339;BMP280;45117;50.960;5.500;2023-07-20T10:49:11;100651.97;;;27.82
59339;BMP280;45117;50.960;5.500;2023-07-20T10:51:39;100649.84;;;27.88
59339;BMP280;45117;50.960;5.500;2023-07-20T10:54:09;100641.19;;;29.03
59339;BMP280;45117;50.960;5.500;2023-07-20T10:56:36;100643.69;;;29.68
59339;BMP280;45117;50.960;5.500;2023-07-20T10:59:17;100636.50;;;30.22
59339;BMP280;45117;50.960;5.500;2023-07-20T11:01:45;100641.66;;;30.54
59339;BMP280;45117;50.960;5.500;2023-07-20T11:04:12;100605.13;;;29.99
59339;BMP280;45117;50.960;5.500;2023-07-20T11:06:42;100634.56;;;30.74
59339;BMP280;45117;50.960;5.500;2023-07-20T11:09:11;100649.59;;;29.73
59339;BMP280;45117;50.960;5.500;2023-07-20T11:11:41;100642.69;;;28.90
59339;BMP280;45117;50.960;5.500;2023-07-20T11:14:08;100633.78;;;28.18
59339;BMP280;45117;50.960;5.500;2023-07-20T11:16:40;100644.03;;;28.97
59339;BMP280;45117;50.960;5.500;2023-07-20T11:19:14;100642.72;;;30.43
59339;BMP280;45117;50.960;5.500;2023-07-20T11:21:43;100629.78;;;29.89
59339;BMP280;45117;50.960;5.500;2023-07-20T11:24:12;100618.28;;;28.15
59339;BMP280;45117;50.960;5.500;2023-07-20T11:26:46;100631.44;;;28.75
59339;BMP280;45117;50.960;5.500;2023-07-20T11:29:16;100628.88;;;28.51
59339;BMP280;45117;50.960;5.500;2023-07-20T11:31:44;100610.22;;;27.72
59339;BMP280;45117;50.960;5.500;2023-07-20T11:34:12;100628.53;;;29.28
59339;BMP280;45117;50.960;5.500;2023-07-20T11:36:40;100639.28;;;29.52
59339;BMP280;45117;50.960;5.500;2023-07-20T11:39:09;100618.47;;;28.70
59339;BMP280;45117;50.960;5.500;2023-07-20T11:41:37;100634.63;;;28.13
59339;BMP280;45117;50.960;5.500;2023-07-20T11:44:05;100619.53;;;28.67
59339;BMP280;45117;50.960;5.500;2023-07-20T11:46:33;100625.03;;;27.37
59339;BMP280;45117;50.960;5.500;2023-07-20T11:49:00;100612.81;;;26.76
59339;BMP280;45117;50.960;5.500;2023-07-20T11:51:27;100623.75;;;27.89
59339;BMP280;45117;50.960;5.500;2023-07-20T11:53:55;100617.19;;;27.60
59339;BMP280;45117;50.960;5.500;2023-07-20T11:56:23;100594.66;;;27.56
59339;BMP280;45117;50.960;5.500;2023-07-20T11:58:54;100583.44;;;27.17
59339;BMP280;45117;50.960;5.500;2023-07-20T12:01:25;100613.34;;;27.31
59339;BMP280;45117;50.960;5.500;2023-07-20T12:03:57;100574.69;;;26.81
59339;BMP280;45117;50.960;5.500;2023-07-20T12:06:24;100594.25;;;26.96
59339;BMP280;45117;50.960;5.500;2023-07-20T12:08:54;100615.47;;;27.89
59339;BMP280;45117;50.960;5.500;2023-07-20T12:11:32;100605.75;;;27.69
59339;BMP280;45117;50.960;5.500;2023-07-20T12:14:00;100603.50;;;28.13
59339;BMP280;45117;50.960;5.500;2023-07-20T12:16:28;100604.88;;;28.59
59339;BMP280;45117;50.960;5.500;2023-07-20T12:19:02;100600.22;;;28.14
59339;BMP280;45117;50.960;5.500;2023-07-20T12:21:29;100597.47;;;28.88
59339;BMP280;45117;50.960;5.500;2023-07-20T12:23:56;100596.31;;;28.83
59339;BMP280;45117;50.960;5.500;2023-07-20T12:26:24;100592.13;;;28.43
59339;BMP280;45117;50.960;5.500;2023-07-20T12:28:51;100586.59;;;28.43
59339;BMP280;45117;50.960;5.500;2023-07-20T12:31:19;100601.44;;;28.79
59339;BMP280;45117;50.960;5.500;2023-07-20T12:33:46;100593.69;;;28.78
59339;BMP280;45117;50.960;5.500;2023-07-20T12:36:13;100588.44;;;28.87
59339;BMP280;45117;50.960;5.500;2023-07-20T12:38:40;100595.53;;;29.30
59339;BMP280;45117;50.960;5.500;2023-07-20T12:41:07;100576.88;;;28.76
59339;BMP280;45117;50.960;5.500;2023-07-20T12:43:34;100590.06;;;29.58
59339;BMP280;45117;50.960;5.500;2023-07-20T12:46:02;100574.69;;;28.48
59339;BMP280;45117;50.960;5.500;2023-07-20T12:48:30;100546.88;;;28.06
59339;BMP280;45117;50.960;5.500;2023-07-20T12:50:57;100578.44;;;28.84
59339;BMP280;45117;50.960;5.500;2023-07-20T12:53:23;100565.97;;;29.04
59339;BMP280;45117;50.960;5.500;2023-07-20T12:55:50;100576.25;;;29.87
59339;BMP280;45117;50.960;5.500;2023-07-20T13:00:52;100567.72;;;29.56
59339;BMP280;45117;50.960;5.500;2023-07-20T13:03:19;100570.97;;;29.76
59339;BMP280;45117;50.960;5.500;2023-07-20T13:05:47;100579.84;;;29.12
59339;BMP280;45117;50.960;5.500;2023-07-20T13:08:14;100561.78;;;29.11
59339;BMP280;45117;50.960;5.500;2023-07-20T13:10:41;100550.59;;;28.82
59339;BMP280;45117;50.960;5.500;2023-07-20T13:13:08;100563.66;;;28.48
59339;BMP280;45117;50.960;5.500;2023-07-20T13:15:41;100555.25;;;28.40
59339;BMP280;45117;50.960;5.500;2023-07-20T13:18:07;100561.06;;;28.63
59339;BMP280;45117;50.960;5.500;2023-07-20T13:23:13;100563.44;;;28.33
59339;BMP280;45117;50.960;5.500;2023-07-20T13:25:40;100527.88;;;27.44
59339;BMP280;45117;50.960;5.500;2023-07-20T13:28:07;100549.00;;;27.23
59339;BMP280;45117;50.960;5.500;2023-07-20T13:30:34;100523.69;;;27.70
59339;BMP280;45117;50.960;5.500;2023-07-20T13:33:01;100546.03;;;27.85
59339;BMP280;45117;50.960;5.500;2023-07-20T13:35:27;100544.28;;;27.95
59339;BMP280;45117;50.960;5.500;2023-07-20T13:37:54;100504.69;;;27.02
59339;BMP280;45117;50.960;5.500;2023-07-20T13:40:22;100516.81;;;27.31
59339;BMP280;45117;50.960;5.500;2023-07-20T13:48:46;100501.44;;;26.85
59339;BMP280;45117;50.960;5.500;2023-07-20T13:51:14;100522.88;;;27.11
59339;BMP280;45117;50.960;5.500;2023-07-20T13:57:04;100504.66;;;27.53
59339;BMP280;45117;50.960;5.500;2023-07-20T13:59:31;100534.63;;;28.88
59339;BMP280;45117;50.960;5.500;2023-07-20T14:02:01;100522.75;;;29.43
59339;BMP280;45117;50.960;5.500;2023-07-20T14:04:27;100534.31;;;29.13
59339;BMP280;45117;50.960;5.500;2023-07-20T14:06:54;100527.31;;;28.31
59339;BMP280;45117;50.960;5.500;2023-07-20T14:09:21;100510.03;;;28.51
59339;BMP280;45117;50.960;5.500;2023-07-20T14:11:48;100510.75;;;27.91
59339;BMP280;45117;50.960;5.500;2023-07-20T14:14:17;100509.72;;;27.49
59339;BMP280;45117;50.960;5.500;2023-07-20T14:16:44;100503.22;;;27.01
59339;BMP280;45117;50.960;5.500;2023-07-20T14:19:10;100509.16;;;27.96